Time;durP1;ratioP1;P1;durP2;ratioP2;P2;SDS_P1;SDS_P2;PMS_P1;PMS_P2;Temp;Humidity;BMP_temperature;BMP_pressure;BME280_temperature;BME280_humidity;BME280_pressure;Samples;Min_cycle;Max_cycle;Signal;HPM_P1;HPM_P2
2023/07/20 00:01:22;;;;;;;;;10.00;9.00;;;;;23.71;100.00;97977.34;7729715;22;96610;-63
2023/07/20 00:04:25;;;;;;;;;9.00;9.00;;;;;23.71;100.00;97975.41;7730412;22;96736;-62
2023/07/20 00:07:28;;;;;;;;;9.80;9.00;;;;;23.71;100.00;97972.66;7756699;22;96604;-63
2023/07/20 00:10:31;;;;;;;;;7.00;7.00;;;;;23.72;100.00;97970.72;7754512;22;96273;-63
2023/07/20 00:13:36;;;;;;;;;7.75;7.75;;;;;23.72;100.00;97960.53;7755850;22;96299;-64
2023/07/20 00:16:39;;;;;;;;;8.00;7.00;;;;;23.78;100.00;97960.34;7753884;22;96348;-63
2023/07/20 00:19:42;;;;;;;;;10.00;9.00;;;;;23.79;100.00;97957.28;7727301;22;96363;-63
2023/07/20 00:22:45;;;;;;;;;7.80;6.80;;;;;23.78;100.00;97963.09;7754494;22;96323;-63
2023/07/20 00:25:49;;;;;;;;;8.00;8.00;;;;;23.73;100.00;97964.09;7754448;22;96364;-64
2023/07/20 00:28:54;;;;;;;;;8.00;7.00;;;;;23.80;100.00;97953.34;7754839;22;96893;-63
2023/07/20 00:31:57;;;;;;;;;6.80;6.00;;;;;23.89;100.00;97947.84;7726517;22;96422;-64
2023/07/20 00:35:00;;;;;;;;;7.00;6.00;;;;;23.87;100.00;97944.59;7727754;22;96261;-63
2023/07/20 00:38:04;;;;;;;;;9.00;8.00;;;;;23.98;100.00;97954.09;7728110;22;96882;-63
2023/07/20 00:41:08;;;;;;;;;7.00;6.80;;;;;24.03;100.00;97951.16;7726137;22;98788;-63
2023/07/20 00:44:12;;;;;;;;;6.80;6.60;;;;;24.08;100.00;97948.22;7754767;22;96345;-64
2023/07/20 00:47:16;;;;;;;;;8.00;8.00;;;;;24.11;100.00;97944.78;7755087;22;96340;-63
2023/07/20 00:50:20;;;;;;;;;6.60;6.20;;;;;24.09;100.00;97956.13;7756458;22;96223;-62
2023/07/20 00:53:23;;;;;;;;;6.25;5.25;;;;;24.07;100.00;97950.16;7754407;22;96312;-62
2023/07/20 00:56:26;;;;;;;;;6.60;6.60;;;;;24.07;100.00;97955.66;7727677;22;98938;-63
2023/07/20 00:59:31;;;;;;;;;4.40;4.40;;;;;24.02;100.00;97953.09;7727246;22;96603;-62
2023/07/20 01:02:34;;;;;;;;;6.50;6.25;;;;;23.94;100.00;97931.94;7754595;22;96254;-63
2023/07/20 01:05:45;;;;;;;;;9.60;9.60;;;;;24.02;100.00;97958.63;7726684;22;96207;-63
2023/07/20 01:08:54;;;;;;;;;7.00;7.00;;;;;24.08;100.00;97951.78;7728423;22;98352;-63
2023/07/20 01:12:04;;;;;;;;;6.00;6.00;;;;;24.08;100.00;97945.47;7730145;22;96896;-63
2023/07/20 01:15:10;;;;;;;;;8.00;7.00;;;;;24.15;100.00;97959.50;7757595;22;96267;-63
2023/07/20 01:18:13;;;;;;;;;7.00;6.80;;;;;24.21;100.00;97960.16;7728958;22;97224;-63
2023/07/20 01:21:24;;;;;;;;;7.20;7.20;;;;;24.24;100.00;97954.78;7727404;22;96707;-64
2023/07/20 01:24:49;;;;;;;;;8.00;8.00;;;;;24.27;100.00;97969.84;7753166;22;96463;-62
2023/07/20 01:28:25;;;;;;;;;9.00;9.00;;;;;24.23;100.00;97972.47;7725521;22;97179;-63
2023/07/20 01:31:32;;;;;;;;;8.20;8.00;;;;;24.11;100.00;98002.63;7700547;22;97614;-63
2023/07/20 01:34:37;;;;;;;;;12.25;10.25;;;;;23.95;100.00;98012.56;7752966;22;96198;-63
2023/07/20 01:37:41;;;;;;;;;10.00;10.00;;;;;23.75;100.00;98030.59;7724896;22;99180;-63
2023/07/20 01:40:45;;;;;;;;;10.20;10.00;;;;;23.61;100.00;98024.50;7751885;22;96231;-63
2023/07/20 01:43:49;;;;;;;;;11.60;9.00;;;;;23.57;100.00;98029.03;7753449;22;96300;-64
2023/07/20 01:46:53;;;;;;;;;11.00;10.00;;;;;23.46;100.00;98047.00;7699961;22;96653;-63
2023/07/20 01:49:56;;;;;;;;;10.00;10.00;;;;;23.40;100.00;98051.06;7726565;22;96321;-63
2023/07/20 01:52:59;;;;;;;;;10.00;9.40;;;;;23.30;100.00;98043.94;7753091;22;96341;-64
2023/07/20 01:56:03;;;;;;;;;11.00;11.00;;;;;23.33;100.00;98040.53;7703161;22;96614;-63
2023/07/20 01:59:06;;;;;;;;;11.67;11.67;;;;;23.29;100.00;98040.38;7754618;22;96406;-64
2023/07/20 02:02:11;;;;;;;;;11.00;10.60;;;;;23.25;100.00;98033.09;7727899;22;96382;-63
2023/07/20 02:05:14;;;;;;;;;11.60;11.40;;;;;23.20;100.00;98034.09;7727610;22;96279;-63
2023/07/20 02:08:18;;;;;;;;;13.00;11.00;;;;;23.09;100.00;98040.22;7752189;22;96379;-64
2023/07/20 02:11:21;;;;;;;;;11.60;11.00;;;;;23.11;100.00;98032.47;7754904;22;96314;-66
2023/07/20 02:14:24;;;;;;;;;10.40;10.00;;;;;23.02;100.00;98020.66;7727144;22;98373;-63
2023/07/20 02:17:29;;;;;;;;;10.75;10.00;;;;;23.07;100.00;98017.72;7754449;22;96342;-64
2023/07/20 02:20:32;;;;;;;;;12.00;11.00;;;;;23.16;100.00;98004.81;7756874;22;96234;-63
2023/07/20 02:23:35;;;;;;;;;11.60;11.40;;;;;23.22;100.00;98000.75;7756492;22;96945;-63
2023/07/20 02:26:38;;;;;;;;;9.00;9.00;;;;;23.23;100.00;97994.94;7754616;22;96312;-63
2023/07/20 02:29:42;;;;;;;;;10.00;9.00;;;;;23.24;100.00;97995.75;7754124;22;96340;-63
2023/07/20 02:32:48;;;;;;;;;9.40;9.40;;;;;23.26;100.00;97996.22;7723688;22;98308;-63
2023/07/20 02:35:52;;;;;;;;;11.00;11.00;;;;;23.25;100.00;97987.16;7724444;22;96633;-63
2023/07/20 02:38:56;;;;;;;;;9.00;9.00;;;;;23.26;100.00;97994.25;7751860;22;96934;-63
2023/07/20 02:42:00;;;;;;;;;14.60;13.00;;;;;23.24;100.00;97985.56;7700485;22;96474;-64
2023/07/20 02:45:06;;;;;;;;;12.00;11.40;;;;;23.19;100.00;98001.41;7751793;22;96272;-64
2023/07/20 02:48:12;;;;;;;;;11.20;11.20;;;;;23.15;100.00;97997.69;7697911;22;96700;-64
2023/07/20 02:51:16;;;;;;;;;10.25;10.25;;;;;23.21;100.00;97994.44;7725690;22;96510;-64
2023/07/20 02:54:20;;;;;;;;;8.60;8.60;;;;;23.20;100.00;97992.84;7754627;22;96317;-62
2023/07/20 02:57:23;;;;;;;;;12.00;11.00;;;;;23.24;100.00;98010.31;7727378;22;98747;-64
2023/07/20 03:00:27;;;;;;;;;11.00;11.00;;;;;23.23;100.00;98022.44;7727139;22;96513;-63
2023/07/20 03:03:36;;;;;;;;;12.40;9.40;;;;;23.17;100.00;98026.47;7726636;22;96328;-63
2023/07/20 03:06:39;;;;;;;;;11.60;10.40;;;;;23.06;100.00;98046.38;7726188;22;96315;-63
2023/07/20 03:09:43;;;;;;;;;11.00;10.40;;;;;22.89;100.00;98031.50;7754369;22;96260;-63
2023/07/20 03:12:46;;;;;;;;;10.75;9.75;;;;;22.80;100.00;98043.59;7752894;22;96246;-63
2023/07/20 03:15:52;;;;;;;;;10.00;9.60;;;;;22.59;100.00;98043.38;7725407;22;96368;-63
2023/07/20 03:18:57;;;;;;;;;11.00;10.50;;;;;22.44;100.00;98050.13;7699021;22;98401;-63
2023/07/20 03:22:01;;;;;;;;;10.00;9.00;;;;;22.37;100.00;98049.78;7724045;22;96724;-63
2023/07/20 03:25:05;;;;;;;;;10.00;10.00;;;;;22.39;100.00;98058.50;7723852;22;96442;-63
2023/07/20 03:28:08;;;;;;;;;9.75;9.75;;;;;22.41;100.00;98058.19;7725860;22;96969;-63
2023/07/20 03:31:11;;;;;;;;;9.50;9.50;;;;;22.30;100.00;98048.63;7723466;22;96606;-63
2023/07/20 03:34:18;;;;;;;;;9.00;8.00;;;;;22.27;100.00;98050.09;7723496;22;96649;-62
2023/07/20 03:37:21;;;;;;;;;9.40;8.40;;;;;22.15;100.00;98054.53;7725249;22;96375;-64
2023/07/20 03:40:25;;;;;;;;;10.00;8.80;;;;;22.19;100.00;98050.03;7722197;22;96239;-63
2023/07/20 03:43:29;;;;;;;;;7.25;7.25;;;;;22.13;100.00;98071.34;7722459;22;96603;-63
2023/07/20 03:46:33;;;;;;;;;9.00;8.00;;;;;22.06;100.00;98064.69;7723480;22;98677;-63
2023/07/20 03:49:38;;;;;;;;;10.40;9.40;;;;;22.09;100.00;98066.81;7719634;22;96624;-63
2023/07/20 03:52:41;;;;;;;;;8.75;8.00;;;;;22.13;100.00;98071.34;7717502;22;96836;-63
2023/07/20 03:55:46;;;;;;;;;7.00;6.60;;;;;22.17;100.00;98066.84;7721769;22;96347;-62
2023/07/20 03:58:49;;;;;;;;;8.20;7.60;;;;;22.30;100.00;98076.91;7750421;22;96776;-64
2023/07/20 04:01:52;;;;;;;;;9.00;8.00;;;;;22.32;100.00;98093.06;7749852;22;96374;-64
2023/07/20 04:04:57;;;;;;;;;10.00;9.00;;;;;22.40;100.00;98103.25;7752615;22;96223;-64
2023/07/20 04:08:01;;;;;;;;;9.00;8.00;;;;;22.42;100.00;98112.00;7712153;22;96294;-62
2023/07/20 04:11:04;;;;;;;;;9.00;8.25;;;;;22.45;100.00;98117.66;7711197;22;96396;-64
2023/07/20 04:14:08;;;;;;;;;8.60;8.00;;;;;22.28;100.00;98116.81;7683423;22;97237;-63
2023/07/20 04:17:13;;;;;;;;;8.00;7.00;;;;;22.32;100.00;98139.75;7712027;22;96744;-63
2023/07/20 04:20:18;;;;;;;;;6.00;6.00;;;;;22.25;100.00;98136.63;7710976;22;96309;-63
2023/07/20 04:23:21;;;;;;;;;9.00;8.40;;;;;22.31;100.00;98143.63;7709379;22;96364;-63
2023/07/20 04:26:26;;;;;;;;;9.00;8.00;;;;;22.36;100.00;98151.72;7711648;22;96443;-63
2023/07/20 04:29:29;;;;;;;;;6.50;6.50;;;;;22.48;100.00;98155.47;7685790;22;96861;-62
2023/07/20 04:32:33;;;;;;;;;7.60;7.00;;;;;22.63;100.00;98158.91;7687074;22;98437;-63
2023/07/20 04:35:54;;;;;;;;;6.80;6.80;;;;;22.74;100.00;98163.84;7683944;22;98794;-63
2023/07/20 04:39:04;;;;;;;;;7.20;6.00;;;;;22.82;100.00;98167.78;7709165;22;96434;-64
2023/07/20 04:42:20;;;;;;;;;8.00;7.00;;;;;22.86;100.00;98175.06;7712435;22;96290;-63
2023/07/20 04:45:24;;;;;;;;;10.60;8.60;;;;;23.11;100.00;98180.94;7683697;22;96724;-65
2023/07/20 04:48:27;;;;;;;;;6.00;6.00;;;;;23.19;100.00;98177.38;7685294;22;96845;-63
2023/07/20 04:51:33;;;;;;;;;9.00;9.00;;;;;23.38;100.00;98186.16;7714000;22;96585;-63
2023/07/20 04:54:36;;;;;;;;;7.80;7.40;;;;;23.53;100.00;98193.16;7718464;22;96264;-62
2023/07/20 04:57:39;;;;;;;;;7.50;7.00;;;;;23.58;100.00;98202.06;7691560;22;96666;-63
2023/07/20 05:00:43;;;;;;;;;10.00;9.00;;;;;23.66;100.00;98208.69;7689600;22;96683;-63
2023/07/20 05:03:46;;;;;;;;;9.00;8.00;;;;;23.74;100.00;98219.72;7716448;22;96193;-63
2023/07/20 05:06:51;;;;;;;;;8.00;8.00;;;;;23.71;100.00;98216.78;7738246;22;96373;-63
2023/07/20 05:09:54;;;;;;;;;9.00;8.50;;;;;23.81;100.00;98219.22;7698677;22;99355;-64
2023/07/20 05:12:57;;;;;;;;;9.00;8.00;;;;;23.91;100.00;98235.41;7722914;22;98465;-63
2023/07/20 05:16:00;;;;;;;;;8.00;8.00;;;;;23.94;100.00;98237.53;7725579;22;96560;-63
2023/07/20 05:19:04;;;;;;;;;11.80;10.80;;;;;23.94;100.00;98233.97;7720807;22;96738;-63
2023/07/20 05:22:10;;;;;;;;;8.80;8.60;;;;;24.03;100.00;98237.53;7722109;22;96627;-64
2023/07/20 05:25:17;;;;;;;;;8.60;7.60;;;;;24.01;100.00;98237.03;7723250;22;96439;-63
2023/07/20 05:28:20;;;;;;;;;6.00;6.00;;;;;24.05;100.00;98243.50;7725227;22;96650;-63
2023/07/20 05:31:24;;;;;;;;;10.00;9.00;;;;;23.98;100.00;98246.75;7753633;22;96327;-63
2023/07/20 05:34:27;;;;;;;;;9.00;8.00;;;;;24.03;100.00;98238.34;7752998;22;96244;-63
2023/07/20 05:37:32;;;;;;;;;8.00;8.00;;;;;24.09;100.00;98231.50;7748999;22;97144;-64
2023/07/20 05:40:38;;;;;;;;;10.67;10.00;;;;;24.31;100.00;98225.03;7750719;22;96301;-63
2023/07/20 05:43:42;;;;;;;;;8.25;7.00;;;;;24.56;100.00;98237.94;7749852;22;96412;-63
2023/07/20 05:46:45;;;;;;;;;8.00;7.00;;;;;24.78;100.00;98238.81;7722574;22;96947;-63
2023/07/20 05:50:00;;;;;;;;;7.00;7.00;;;;;24.83;100.00;98217.41;7749754;22;96778;-64
2023/07/20 05:53:04;;;;;;;;;8.00;8.00;;;;;25.02;100.00;98206.00;7722124;22;96641;-63
2023/07/20 05:56:10;;;;;;;;;7.00;6.20;;;;;25.25;100.00;98206.53;7751364;22;96320;-63
2023/07/20 05:59:13;;;;;;;;;9.00;7.75;;;;;25.44;100.00;98217.91;7751563;22;96211;-63
2023/07/20 06:02:16;;;;;;;;;7.20;5.40;;;;;25.61;100.00;98217.81;7751517;22;96227;-63
2023/07/20 06:05:20;;;;;;;;;7.00;7.00;;;;;25.77;100.00;98216.06;7725216;22;96994;-63
2023/07/20 06:08:24;;;;;;;;;6.00;6.00;;;;;25.83;100.00;98219.44;7750000;22;96257;-63
2023/07/20 06:11:27;;;;;;;;;8.75;6.75;;;;;25.82;100.00;98206.78;7724288;22;96863;-63
2023/07/20 06:14:31;;;;;;;;;7.60;7.60;;;;;25.77;100.00;98205.03;7748885;22;96648;-63
2023/07/20 06:17:34;;;;;;;;;7.50;7.50;;;;;25.51;100.00;98190.56;7750935;22;96571;-65
2023/07/20 06:20:39;;;;;;;;;9.20;9.20;;;;;25.79;100.00;98201.94;7722445;22;97380;-63
2023/07/20 06:23:44;;;;;;;;;6.00;5.00;;;;;25.92;100.00;98197.25;7751074;22;96249;-64
2023/07/20 06:26:47;;;;;;;;;7.00;7.00;;;;;25.84;100.00;98188.72;7720603;22;96658;-63
2023/07/20 06:29:50;;;;;;;;;7.00;6.00;;;;;26.10;100.00;98205.03;7748562;22;96331;-64
2023/07/20 06:32:53;;;;;;;;;8.00;7.60;;;;;26.19;100.00;98199.47;7751585;22;96596;-63
2023/07/20 06:35:57;;;;;;;;;8.40;8.00;;;;;26.24;100.00;98202.81;7722385;22;96531;-63
2023/07/20 06:39:03;;;;;;;;;5.00;4.80;;;;;26.36;100.00;98207.59;7746846;22;96555;-62
2023/07/20 06:42:09;;;;;;;;;8.75;7.00;;;;;26.42;100.00;98200.69;7748646;22;97473;-64
2023/07/20 06:45:12;;;;;;;;;7.40;6.40;;;;;26.46;100.00;98187.00;7749235;22;96455;-63
2023/07/20 06:48:15;;;;;;;;;6.00;6.00;;;;;26.59;100.00;98200.50;7748081;22;96728;-64
2023/07/20 06:51:19;;;;;;;;;7.50;6.50;;;;;26.58;100.00;98215.47;7721992;22;98561;-63
2023/07/20 06:54:24;;;;;;;;;5.40;4.60;;;;;26.77;100.00;98208.59;7749776;22;96959;-64
2023/07/20 06:57:27;;;;;;;;;6.00;5.60;;;;;26.84;100.00;98206.84;7746800;22;96503;-62
2023/07/20 07:00:30;;;;;;;;;5.00;5.00;;;;;26.73;100.00;98203.72;7747278;22;96437;-63
2023/07/20 07:03:34;;;;;;;;;9.00;8.00;;;;;26.86;100.00;98215.66;7746841;22;96989;-64
2023/07/20 07:06:38;;;;;;;;;7.40;6.40;;;;;27.03;100.00;98211.84;7718497;22;97099;-64
2023/07/20 07:09:42;;;;;;;;;5.40;5.40;;;;;27.22;100.00;98212.06;7751526;22;96299;-64
2023/07/20 07:12:45;;;;;;;;;8.00;8.00;;;;;27.37;100.00;98203.06;7750064;22;96231;-63
2023/07/20 07:15:48;;;;;;;;;9.00;7.00;;;;;27.31;100.00;98214.72;7723409;22;96350;-63
2023/07/20 07:18:52;;;;;;;;;6.50;6.00;;;;;27.30;100.00;98213.13;7750907;22;96259;-63
2023/07/20 07:21:55;;;;;;;;;6.00;6.00;;;;;27.41;100.00;98222.56;7750876;22;96331;-63
2023/07/20 07:25:05;;;;;;;;;7.00;7.00;;;;;27.52;100.00;98223.72;7750623;22;96350;-63
2023/07/20 07:28:08;;;;;;;;;7.00;6.00;;;;;27.32;100.00;98185.91;7751764;22;97016;-63
2023/07/20 07:31:11;;;;;;;;;7.00;6.00;;;;;27.56;100.00;98214.34;7747960;22;96483;-63
2023/07/20 07:34:14;;;;;;;;;7.00;7.00;;;;;27.63;100.00;98227.63;7751073;22;96232;-63
2023/07/20 07:37:19;;;;;;;;;6.00;6.00;;;;;27.66;100.00;98224.16;7724311;22;96245;-63
2023/07/20 07:40:24;;;;;;;;;5.40;5.00;;;;;27.77;100.00;98224.47;7749290;22;96741;-63
2023/07/20 07:43:27;;;;;;;;;7.40;7.00;;;;;27.85;100.00;98224.34;7722782;22;98444;-63
2023/07/20 07:46:30;;;;;;;;;7.00;5.40;;;;;27.89;100.00;98232.75;7750416;22;96222;-64
2023/07/20 07:49:33;;;;;;;;;7.00;6.00;;;;;27.92;100.00;98237.59;7722836;22;96374;-64
2023/07/20 07:52:37;;;;;;;;;7.20;6.80;;;;;28.07;100.00;98239.63;7750149;22;96285;-63
2023/07/20 07:55:41;;;;;;;;;7.00;7.00;;;;;28.06;100.00;98232.44;7747872;22;96411;-64
2023/07/20 07:58:45;;;;;;;;;7.00;7.00;;;;;27.97;100.00;98246.47;7720697;22;96642;-64
2023/07/20 08:01:48;;;;;;;;;8.20;7.20;;;;;27.57;100.00;98235.34;7721022;22;96708;-64
2023/07/20 08:04:52;;;;;;;;;6.40;6.40;;;;;27.66;100.00;98231.66;7722050;22;98735;-65
2023/07/20 08:07:55;;;;;;;;;7.60;6.40;;;;;27.74;100.00;98239.03;7747229;22;96253;-63
2023/07/20 08:11:00;;;;;;;;;6.60;5.00;;;;;27.87;100.00;98241.41;7749576;22;96315;-64
2023/07/20 08:14:09;;;;;;;;;8.00;7.60;;;;;28.16;100.00;98236.72;7748571;22;96884;-64
2023/07/20 08:17:13;;;;;;;;;9.00;8.00;;;;;28.04;100.00;98237.56;7749617;22;96822;-64
2023/07/20 08:20:17;;;;;;;;;8.00;8.00;;;;;28.30;100.00;98239.88;7749416;22;96771;-64
2023/07/20 08:23:20;;;;;;;;;7.80;6.80;;;;;28.53;100.00;98245.69;7720457;22;98475;-64
2023/07/20 08:26:25;;;;;;;;;6.00;5.00;;;;;28.84;100.00;98259.59;7748105;22;96323;-64
2023/07/20 08:29:29;;;;;;;;;5.75;5.75;;;;;28.93;100.00;98260.22;7748755;22;96284;-63
2023/07/20 08:32:33;;;;;;;;;6.60;6.00;;;;;28.87;100.00;98261.69;7720517;22;98412;-64
2023/07/20 08:35:36;;;;;;;;;7.00;7.00;;;;;28.71;100.00;98269.16;7739859;22;96839;-63
2023/07/20 08:38:40;;;;;;;;;6.00;5.00;;;;;28.75;100.00;98275.63;7722329;22;98666;-63
2023/07/20 08:41:45;;;;;;;;;6.00;6.00;;;;;29.00;100.00;98265.16;7749512;22;96267;-63
2023/07/20 08:44:49;;;;;;;;;5.00;5.00;;;;;29.32;100.00;98257.69;7721180;22;98394;-63
2023/07/20 08:47:53;;;;;;;;;8.00;8.00;;;;;29.48;100.00;98266.78;7724280;22;97132;-63
2023/07/20 08:50:57;;;;;;;;;9.25;9.25;;;;;29.62;100.00;98272.66;7751059;22;96234;-63
2023/07/20 08:54:01;;;;;;;;;9.50;9.00;;;;;29.75;100.00;98268.59;7721808;22;96660;-63
2023/07/20 08:57:07;;;;;;;;;7.00;7.00;;;;;29.91;100.00;98277.72;7749335;22;96813;-63
2023/07/20 09:00:13;;;;;;;;;7.80;7.80;;;;;30.03;100.00;98272.03;7749292;22;96297;-63
2023/07/20 09:03:16;;;;;;;;;6.00;5.50;;;;;30.18;100.00;98262.03;7748302;22;96545;-63
2023/07/20 09:06:20;;;;;;;;;5.00;5.00;;;;;30.19;100.00;98268.38;7750981;22;97065;-63
2023/07/20 09:09:23;;;;;;;;;8.20;6.20;;;;;30.27;100.00;98270.13;7754391;22;96305;-63
2023/07/20 09:12:28;;;;;;;;;4.80;4.80;;;;;30.49;100.00;98269.44;7731880;22;99105;-63
2023/07/20 09:15:31;;;;;;;;;6.75;5.00;;;;;30.68;100.00;98260.25;7757037;22;96228;-62
2023/07/20 09:18:35;;;;;;;;;6.00;5.80;;;;;30.67;100.00;98247.50;7753827;22;96393;-63
2023/07/20 09:21:38;;;;;;;;;7.00;7.00;;;;;30.86;100.00;98264.16;7754339;22;96259;-63
2023/07/20 09:24:42;;;;;;;;;6.00;5.00;;;;;30.90;100.00;98265.00;7726401;22;96967;-63
2023/07/20 09:27:49;;;;;;;;;5.00;4.40;;;;;31.02;100.00;98270.44;7745984;22;96307;-63
2023/07/20 09:30:56;;;;;;;;;4.40;4.00;;;;;31.10;100.00;98263.81;7725662;22;97149;-63
2023/07/20 09:34:00;;;;;;;;;8.00;7.00;;;;;31.27;100.00;98268.88;7733054;22;96609;-63
2023/07/20 09:37:05;;;;;;;;;8.00;7.60;;;;;31.61;100.00;98257.88;7731634;22;96575;-62
2023/07/20 09:40:10;;;;;;;;;16.67;11.00;;;;;31.92;100.00;98253.94;7754725;22;96409;-63
2023/07/20 09:43:18;;;;;;;;;5.25;5.00;;;;;32.11;100.00;98251.03;7752430;22;96824;-63
2023/07/20 09:46:24;;;;;;;;;6.00;5.40;;;;;31.97;100.00;98267.53;7724037;22;96818;-63
2023/07/20 09:49:30;;;;;;;;;5.40;4.40;;;;;31.76;100.00;98263.28;7749064;22;96280;-63
2023/07/20 09:52:54;;;;;;;;;6.20;6.00;;;;;31.89;100.00;98261.06;7752777;22;96294;-63
2023/07/20 09:56:00;;;;;;;;;4.00;4.00;;;;;31.98;100.00;98260.78;7753026;22;96385;-63
2023/07/20 09:59:05;;;;;;;;;2.75;2.75;;;;;31.87;92.99;98240.31;7724365;22;98425;-63
2023/07/20 10:02:20;;;;;;;;;7.00;7.00;;;;;32.05;95.99;98249.75;7724213;22;96796;-63
2023/07/20 10:05:25;;;;;;;;;5.00;5.00;;;;;31.28;91.77;98255.72;7751768;22;96590;-63
2023/07/20 10:08:31;;;;;;;;;5.00;5.00;;;;;31.15;96.82;98255.16;7726944;22;98903;-63
2023/07/20 10:11:41;;;;;;;;;7.00;6.00;;;;;30.81;98.25;98259.69;7754080;22;96302;-63
2023/07/20 10:15:01;;;;;;;;;3.33;3.00;;;;;30.73;98.58;98263.53;7723679;22;96806;-64
2023/07/20 10:18:10;;;;;;;;;4.40;4.40;;;;;30.61;99.50;98257.31;7700551;22;98292;-63
2023/07/20 10:21:13;;;;;;;;;2.60;2.60;;;;;30.95;97.03;98257.16;7723933;22;97659;-63
2023/07/20 10:24:20;;;;;;;;;3.00;2.80;;;;;31.23;91.02;98256.84;7751644;22;96460;-63
2023/07/20 10:27:24;;;;;;;;;4.00;3.75;;;;;31.20;91.17;98271.53;7752032;22;96179;-64
2023/07/20 10:30:29;;;;;;;;;6.00;5.00;;;;;31.47;91.58;98268.78;7724622;22;96854;-63
2023/07/20 10:33:32;;;;;;;;;6.00;5.00;;;;;31.42;91.46;98261.56;7751430;22;96237;-63
2023/07/20 10:36:45;;;;;;;;;6.25;6.25;;;;;31.15;93.23;98265.47;7726754;22;96626;-63
2023/07/20 10:39:48;;;;;;;;;6.40;5.00;;;;;30.75;97.17;98258.38;7700486;22;97540;-63
2023/07/20 10:42:51;;;;;;;;;5.00;4.60;;;;;30.70;100.00;98255.91;7727451;22;96694;-64
2023/07/20 10:45:56;;;;;;;;;5.00;5.00;;;;;31.09;97.71;98255.81;7750908;22;96970;-63
2023/07/20 10:49:04;;;;;;;;;5.00;5.00;;;;;31.59;99.83;98255.47;7752785;22;96169;-63
2023/07/20 10:52:11;;;;;;;;;3.00;3.00;;;;;31.83;91.55;98263.38;7752750;22;96176;-63
2023/07/20 10:55:16;;;;;;;;;6.00;6.00;;;;;32.07;90.46;98253.75;7724294;22;97142;-63
2023/07/20 10:58:26;;;;;;;;;4.00;4.00;;;;;32.16;91.79;98253.47;7726732;22;97708;-63
2023/07/20 11:01:32;;;;;;;;;3.80;3.80;;;;;32.14;86.84;98245.50;7752113;22;96246;-63
2023/07/20 11:04:39;;;;;;;;;5.00;5.00;;;;;32.01;86.26;98251.69;7749141;22;97040;-63
2023/07/20 11:07:42;;;;;;;;;4.00;4.00;;;;;32.18;88.80;98248.34;7720844;22;96416;-63
2023/07/20 11:10:46;;;;;;;;;6.00;6.00;;;;;32.07;85.34;98247.34;7748148;22;96197;-63
2023/07/20 11:13:55;;;;;;;;;5.40;5.40;;;;;31.47;88.87;98250.09;7753667;22;96466;-65
2023/07/20 11:17:12;;;;;;;;;5.00;5.00;;;;;31.59;94.42;98246.31;7729346;22;97607;-64
2023/07/20 11:20:16;;;;;;;;;5.00;5.00;;;;;31.59;93.61;98246.31;7702372;22;98393;-64
2023/07/20 11:23:23;;;;;;;;;5.00;5.00;;;;;31.55;90.48;98242.63;7749990;22;96462;-64
2023/07/20 11:26:26;;;;;;;;;5.60;4.60;;;;;31.71;88.52;98251.66;7724381;22;96244;-64
2023/07/20 11:29:29;;;;;;;;;7.00;7.00;;;;;31.77;88.12;98247.34;7725190;22;96610;-63
2023/07/20 11:32:48;;;;;;;;;7.00;7.00;;;;;31.74;87.84;98235.00;7751395;22;96303;-64
2023/07/20 11:35:52;;;;;;;;;6.50;6.50;;;;;31.55;87.88;98237.88;7755069;22;96193;-64
2023/07/20 11:38:55;;;;;;;;;7.00;7.00;;;;;31.32;89.48;98235.16;7756593;22;96257;-63
2023/07/20 11:41:59;;;;;;;;;6.75;6.75;;;;;31.10;88.05;98241.53;7758848;22;96239;-64
2023/07/20 11:45:04;;;;;;;;;4.00;4.00;;;;;30.92;90.15;98244.00;7758480;22;96228;-63
2023/07/20 11:48:15;;;;;;;;;7.00;7.00;;;;;31.09;92.57;98244.69;7736507;22;96522;-63
2023/07/20 11:51:19;;;;;;;;;5.40;4.40;;;;;31.41;93.81;98229.31;7763254;22;96274;-64
2023/07/20 11:54:23;;;;;;;;;8.00;7.75;;;;;31.89;93.93;98232.38;7764146;22;96091;-63
2023/07/20 11:57:26;;;;;;;;;4.60;4.60;;;;;32.27;92.41;98232.09;7736018;22;96610;-63
2023/07/20 12:00:30;;;;;;;;;8.00;7.00;;;;;32.38;90.72;98238.63;7758226;22;96233;-64
2023/07/20 12:03:35;;;;;;;;;4.25;4.25;;;;;32.53;86.19;98234.00;7729057;22;96804;-64
2023/07/20 12:06:40;;;;;;;;;7.00;7.00;;;;;32.38;87.33;98219.09;7751688;22;97264;-64
2023/07/20 12:09:43;;;;;;;;;6.00;6.00;;;;;32.37;90.93;98230.63;7747429;22;96337;-64
2023/07/20 12:12:54;;;;;;;;;8.00;8.00;;;;;32.49;90.59;98222.81;7742568;22;96226;-65
2023/07/20 12:15:57;;;;;;;;;9.00;8.00;;;;;32.69;90.15;98219.84;7711146;22;96472;-65
2023/07/20 12:19:03;;;;;;;;;9.00;9.00;;;;;32.88;86.51;98223.22;7736962;22;97038;-64
2023/07/20 12:22:07;;;;;;;;;7.20;7.20;;;;;33.04;86.57;98217.34;7736317;22;96893;-65
2023/07/20 12:25:10;;;;;;;;;8.00;7.00;;;;;33.17;85.96;98220.69;7708267;22;96598;-65
2023/07/20 12:28:15;;;;;;;;;6.40;6.40;;;;;33.20;85.73;98212.31;7712048;22;98016;-65
2023/07/20 12:31:19;;;;;;;;;9.00;9.00;;;;;33.40;82.35;98224.03;7710067;22;99410;-64
2023/07/20 12:34:24;;;;;;;;;7.20;7.00;;;;;33.51;83.71;98208.97;7707529;22;97155;-64
2023/07/20 12:37:27;;;;;;;;;9.00;8.00;;;;;33.65;84.25;98211.03;7737025;22;96336;-64
2023/07/20 12:40:30;;;;;;;;;6.20;6.00;;;;;32.92;80.08;98214.88;7736474;22;96516;-68
2023/07/20 12:43:34;;;;;;;;;8.00;7.00;;;;;32.44;79.92;98211.19;7710803;22;98869;-64
2023/07/20 12:46:38;;;;;;;;;7.40;7.40;;;;;32.35;79.39;98180.00;7738279;22;96378;-64
2023/07/20 12:49:45;;;;;;;;;6.60;6.60;;;;;32.51;80.96;98200.06;7712755;22;96122;-64
2023/07/20 12:52:48;;;;;;;;;6.00;6.00;;;;;32.71;80.63;98200.69;7686418;22;98516;-64
2023/07/20 12:55:51;;;;;;;;;9.60;9.00;;;;;32.81;80.38;98200.81;7711951;22;96748;-64
2023/07/20 12:58:54;;;;;;;;;8.00;6.20;;;;;32.91;74.18;98208.47;7711526;22;96432;-64
2023/07/20 13:01:58;;;;;;;;;8.00;8.00;;;;;32.96;69.02;98207.31;7736383;22;96272;-64
2023/07/20 13:05:03;;;;;;;;;9.00;9.00;;;;;33.10;72.62;98199.84;7712665;22;97236;-65
2023/07/20 13:08:07;;;;;;;;;6.60;6.60;;;;;33.08;69.90;98201.44;7740640;22;96979;-64
2023/07/20 13:11:13;;;;;;;;;7.60;7.60;;;;;33.16;72.06;98180.78;7712612;22;96882;-64
2023/07/20 13:14:16;;;;;;;;;8.25;8.25;;;;;33.03;72.01;98183.06;7713362;22;98955;-64
2023/07/20 13:17:19;;;;;;;;;6.00;6.00;;;;;32.63;70.93;98169.94;7741381;22;96548;-64
2023/07/20 13:20:24;;;;;;;;;9.00;8.20;;;;;32.79;76.54;98177.25;7715259;22;97586;-64
2023/07/20 13:23:27;;;;;;;;;9.00;9.00;;;;;32.97;76.54;98178.22;7742651;22;96246;-64
2023/07/20 13:26:30;;;;;;;;;10.00;9.60;;;;;32.90;70.06;98172.56;7740536;22;96559;-64
2023/07/20 13:29:33;;;;;;;;;10.00;8.75;;;;;32.90;72.01;98184.53;7738865;22;96228;-66
2023/07/20 13:32:37;;;;;;;;;9.00;8.00;;;;;32.91;70.65;98180.56;7712290;22;96561;-64
2023/07/20 13:35:45;;;;;;;;;8.60;8.40;;;;;32.53;69.45;98178.19;7715021;22;96651;-64
2023/07/20 13:38:51;;;;;;;;;9.00;9.00;;;;;32.39;69.39;98178.03;7715660;22;96592;-64
2023/07/20 13:41:56;;;;;;;;;8.00;8.00;;;;;32.33;69.57;98174.00;7745368;22;96302;-64
2023/07/20 13:44:59;;;;;;;;;9.00;9.00;;;;;32.40;67.18;98180.44;7742928;22;96313;-64
2023/07/20 13:48:03;;;;;;;;;8.00;8.00;;;;;32.50;67.68;98184.53;7692188;22;97616;-64
2023/07/20 13:51:10;;;;;;;;;6.00;6.00;;;;;32.54;68.62;98180.59;7717680;22;96644;-64
2023/07/20 13:54:14;;;;;;;;;7.25;7.25;;;;;32.70;68.23;98179.56;7744409;22;96254;-64
2023/07/20 13:57:20;;;;;;;;;7.00;6.60;;;;;32.79;68.68;98177.25;7718231;22;96618;-64
2023/07/20 14:00:26;;;;;;;;;5.00;5.00;;;;;32.72;65.96;98177.19;7718765;22;98132;-64
2023/07/20 14:03:30;;;;;;;;;7.40;7.40;;;;;32.43;70.77;98188.06;7747895;22;96386;-64
2023/07/20 14:06:35;;;;;;;;;7.00;5.40;;;;;32.58;72.03;98189.00;7719038;22;98850;-64
2023/07/20 14:09:39;;;;;;;;;7.00;7.00;;;;;32.54;69.49;98188.97;7747773;22;96296;-65
2023/07/20 14:13:02;;;;;;;;;8.00;7.40;;;;;32.55;71.80;98187.75;7747505;22;96220;-64
2023/07/20 14:16:06;;;;;;;;;6.40;5.40;;;;;32.55;73.15;98186.94;7746287;22;96306;-64
2023/07/20 14:19:09;;;;;;;;;7.00;6.00;;;;;32.50;69.04;98193.69;7717847;22;98392;-64
2023/07/20 14:22:14;;;;;;;;;5.60;5.60;;;;;32.32;66.72;98187.13;7720627;22;97061;-64